createdAt,value
2018-02-24T00:00:42.493Z,75.40
2018-02-24T00:03:10.567Z,75.40
2018-02-24T00:05:38.739Z,75.30
2018-02-24T00:08:06.910Z,75.40
2018-02-24T00:10:34.979Z,75.30
2018-02-24T00:13:02.949Z,75.30
2018-02-24T00:15:31.664Z,75.30
2018-02-24T00:18:00.528Z,75.30
2018-02-24T00:20:28.810Z,75.30
2018-02-24T00:22:56.972Z,75.30
2018-02-24T00:25:25.159Z,75.30
2018-02-24T00:27:53.219Z,75.30
2018-02-24T00:30:21.403Z,75.30
2018-02-24T00:32:49.679Z,75.30
2018-02-24T00:35:17.738Z,75.30
2018-02-24T00:37:45.820Z,75.30
2018-02-24T00:40:14.383Z,75.30
2018-02-24T00:42:42.362Z,75.40
2018-02-24T00:45:10.542Z,75.40
2018-02-24T00:47:40.243Z,75.40
2018-02-24T00:50:08.315Z,75.40
2018-02-24T00:52:36.500Z,75.40
2018-02-24T00:55:04.664Z,75.40
2018-02-24T00:57:32.948Z,75.40
2018-02-24T01:00:01.008Z,75.50
2018-02-24T01:02:29.090Z,75.50
2018-02-24T01:04:57.257Z,75.50
2018-02-24T01:07:25.324Z,76.20
2018-02-24T01:09:53.216Z,75.50
2018-02-24T01:12:22.195Z,75.50
2018-02-24T01:14:50.369Z,75.50
2018-02-24T01:17:18.535Z,75.50
2018-02-24T01:19:46.603Z,76.30
2018-02-24T01:22:14.777Z,75.60
2018-02-24T01:24:42.745Z,75.50
2018-02-24T01:27:10.928Z,75.50
2018-02-24T01:29:39.092Z,75.50
2018-02-24T01:32:07.172Z,75.60
2018-02-24T01:34:35.347Z,75.60
2018-02-24T01:37:03.390Z,75.60
2018-02-24T01:39:31.590Z,75.70
2018-02-24T01:41:59.757Z,75.60
2018-02-24T01:44:28.544Z,75.60
2018-02-24T01:46:56.716Z,75.60
2018-02-24T01:49:24.900Z,75.60
2018-02-24T01:51:53.777Z,75.60
2018-02-24T01:54:21.747Z,75.60
2018-02-24T01:56:50.436Z,75.70
2018-02-24T01:59:18.513Z,75.70
2018-02-24T02:01:46.678Z,75.70
2018-02-24T02:04:14.662Z,75.80
2018-02-24T02:06:42.715Z,75.80
2018-02-24T02:09:10.847Z,75.80
2018-02-24T02:11:38.971Z,75.80
2018-02-24T02:14:07.137Z,75.80
2018-02-24T02:16:35.103Z,75.80
2018-02-24T02:19:03.288Z,75.80
2018-02-24T02:21:31.461Z,75.80
2018-02-24T02:23:59.521Z,75.90
2018-02-24T02:26:27.591Z,76.00
2018-02-24T02:28:55.663Z,76.00
2018-02-24T02:31:23.795Z,76.00
2018-02-24T02:33:51.920Z,76.00
2018-02-24T02:36:20.194Z,76.00
2018-02-24T02:38:48.369Z,75.90
2018-02-24T02:41:16.430Z,76.00
2018-02-24T02:43:44.614Z,76.00
2018-02-24T02:46:14.209Z,76.00
2018-02-24T02:48:42.383Z,75.90
2018-02-24T02:51:10.350Z,75.90
2018-02-24T02:53:38.426Z,76.70
2018-02-24T02:56:06.599Z,76.10
2018-02-24T02:58:34.560Z,76.10
2018-02-24T03:01:02.637Z,76.10
2018-02-24T03:03:30.718Z,76.10
2018-02-24T03:05:58.881Z,76.20
2018-02-24T03:08:27.064Z,76.10
2018-02-24T03:10:55.327Z,76.10
2018-02-24T03:13:23.500Z,76.30
2018-02-24T03:15:51.677Z,76.10
2018-02-24T03:18:19.852Z,76.10
2018-02-24T03:20:47.921Z,76.10
2018-02-24T03:23:16.002Z,76.20
2018-02-24T03:25:44.165Z,76.10
2018-02-24T03:28:12.349Z,76.10
2018-02-24T03:30:40.414Z,76.00
2018-02-24T03:33:08.481Z,76.00
2018-02-24T03:35:36.656Z,76.00
2018-02-24T03:38:04.831Z,76.00
2018-02-24T03:40:32.901Z,76.00
2018-02-24T03:43:01.079Z,76.00
2018-02-24T03:45:29.145Z,76.00
2018-02-24T03:47:57.315Z,76.10
2018-02-24T03:50:26.000Z,76.10
2018-02-24T03:52:54.241Z,76.10
2018-02-24T03:55:22.354Z,76.00
2018-02-24T03:57:51.957Z,76.10
2018-02-24T04:00:20.038Z,76.10
2018-02-24T04:02:48.212Z,76.10
2018-02-24T04:05:16.589Z,76.20
2018-02-24T04:07:45.377Z,76.20
2018-02-24T04:10:13.543Z,76.20
2018-02-24T04:12:41.715Z,76.10
2018-02-24T04:15:09.892Z,76.10
2018-02-24T04:17:38.065Z,76.10
2018-02-24T04:20:05.970Z,76.10
2018-02-24T04:22:33.996Z,76.10
2018-02-24T04:25:02.173Z,76.20
2018-02-24T04:27:30.348Z,76.10
2018-02-24T04:29:58.426Z,76.10
2018-02-24T04:32:26.498Z,76.10
2018-02-24T04:34:54.670Z,76.10
2018-02-24T04:37:22.948Z,76.10
2018-02-24T04:39:51.112Z,76.00
2018-02-24T04:42:19.181Z,76.00
2018-02-24T04:44:47.363Z,76.00
2018-02-24T04:47:15.529Z,76.00
2018-02-24T04:49:43.701Z,75.90
2018-02-24T04:52:11.773Z,75.80
2018-02-24T04:54:39.844Z,76.00
2018-02-24T04:57:07.917Z,76.00
2018-02-24T04:59:35.983Z,76.00
2018-02-24T05:02:04.055Z,76.10
2018-02-24T05:04:32.127Z,76.20
2018-02-24T05:07:00.310Z,76.10
2018-02-24T05:09:28.883Z,76.20
2018-02-24T05:11:57.169Z,76.20
2018-02-24T05:14:26.156Z,76.10
2018-02-24T05:16:54.227Z,76.20
2018-02-24T05:19:22.195Z,76.10
2018-02-24T05:21:50.267Z,76.00
2018-02-24T05:24:19.254Z,76.00
2018-02-24T05:26:47.329Z,75.90
2018-02-24T05:29:15.513Z,75.90
2018-02-24T05:31:43.726Z,75.90
2018-02-24T05:34:11.849Z,75.90
2018-02-24T05:36:39.917Z,75.80
2018-02-24T05:39:07.988Z,75.80
2018-02-24T05:41:36.169Z,75.80
2018-02-24T05:44:04.231Z,75.80
2018-02-24T05:46:32.200Z,75.80
2018-02-24T05:49:00.377Z,75.90
2018-02-24T05:51:28.445Z,76.60
2018-02-24T05:53:56.622Z,75.80
2018-02-24T05:56:24.907Z,75.80
2018-02-24T05:58:53.082Z,75.90
2018-02-24T06:01:21.245Z,75.80
2018-02-24T06:03:49.421Z,75.90
2018-02-24T06:06:17.594Z,75.90
2018-02-24T06:08:45.776Z,75.90
2018-02-24T06:11:13.937Z,75.80
2018-02-24T06:13:42.113Z,75.70
2018-02-24T06:16:10.285Z,75.80
2018-02-24T06:18:38.354Z,75.70
2018-02-24T06:21:06.321Z,75.80
2018-02-24T06:23:34.398Z,75.70
2018-02-24T06:26:02.464Z,75.70
2018-02-24T06:28:30.637Z,75.70
2018-02-24T06:30:58.815Z,75.70
2018-02-24T06:33:26.885Z,75.70
2018-02-24T06:35:54.851Z,75.70
2018-02-24T06:38:23.035Z,75.80
2018-02-24T06:40:51.414Z,75.70
2018-02-24T06:43:19.587Z,75.70
2018-02-24T06:45:48.479Z,75.80
2018-02-24T06:48:16.647Z,75.80
2018-02-24T06:50:44.710Z,75.70
2018-02-24T06:53:12.794Z,75.70
2018-02-24T06:55:41.071Z,75.70
2018-02-24T06:58:09.233Z,75.70
2018-02-24T07:00:37.302Z,75.70
2018-02-24T07:03:05.480Z,75.70
2018-02-24T07:05:33.547Z,75.70
2018-02-24T07:08:01.620Z,75.60
2018-02-24T07:10:29.794Z,75.70
2018-02-24T07:12:57.979Z,75.60
2018-02-24T07:15:26.143Z,75.60
2018-02-24T07:17:54.311Z,75.50
2018-02-24T07:20:22.382Z,75.60
2018-02-24T07:22:50.467Z,75.60
2018-02-24T07:25:19.349Z,75.70
2018-02-24T07:27:48.132Z,75.60
2018-02-24T07:30:16.317Z,75.70
2018-02-24T07:32:44.481Z,75.70
2018-02-24T07:35:12.664Z,75.60
2018-02-24T07:37:40.829Z,75.60
2018-02-24T07:40:08.820Z,75.70
2018-02-24T07:42:37.799Z,75.60
2018-02-24T07:45:05.964Z,75.60
2018-02-24T07:47:34.751Z,75.60
2018-02-24T07:50:02.819Z,75.50
2018-02-24T07:52:30.902Z,75.40
2018-02-24T07:54:59.070Z,75.30
2018-02-24T07:57:27.135Z,75.20
2018-02-24T07:59:55.205Z,75.20
2018-02-24T08:02:23.385Z,75.20
2018-02-24T08:04:51.557Z,75.20
2018-02-24T08:07:19.739Z,75.10
2018-02-24T08:09:48.628Z,75.10
2018-02-24T08:12:16.801Z,75.10
2018-02-24T08:14:44.963Z,75.10
2018-02-24T08:17:13.859Z,75.10
2018-02-24T08:19:42.641Z,75.00
2018-02-24T08:22:10.718Z,75.00
2018-02-24T08:24:38.749Z,74.90
2018-02-24T08:27:07.485Z,74.90
2018-02-24T08:29:35.641Z,75.00
2018-02-24T08:32:03.725Z,74.90
2018-02-24T08:34:32.410Z,74.80
2018-02-24T08:37:00.483Z,74.70
2018-02-24T08:39:28.541Z,74.70
2018-02-24T08:41:57.227Z,74.60
2018-02-24T08:44:25.412Z,74.60
2018-02-24T08:46:53.572Z,74.50
2018-02-24T08:49:21.746Z,74.40
2018-02-24T08:51:49.829Z,74.40
2018-02-24T08:54:17.893Z,75.10
2018-02-24T08:56:46.882Z,74.30
2018-02-24T08:59:15.060Z,74.20
2018-02-24T09:01:43.137Z,74.20
2018-02-24T09:04:11.203Z,74.20
2018-02-24T09:06:39.383Z,74.20
2018-02-24T09:09:07.556Z,74.10
2018-02-24T09:11:35.728Z,74.10
2018-02-24T09:14:04.005Z,74.10
2018-02-24T09:16:32.063Z,74.20
2018-02-24T09:19:00.751Z,74.30
2018-02-24T09:21:28.928Z,74.10
2018-02-24T09:23:56.995Z,74.10
2018-02-24T09:26:25.065Z,74.00
2018-02-24T09:28:53.137Z,74.00
2018-02-24T09:31:21.424Z,73.90
2018-02-24T09:33:49.591Z,73.80
2018-02-24T09:36:17.660Z,73.70
2018-02-24T09:38:45.627Z,73.50
2018-02-24T09:41:13.697Z,73.30
2018-02-24T09:43:42.487Z,73.30
2018-02-24T09:46:10.514Z,73.20
2018-02-24T09:48:38.741Z,72.90
2018-02-24T09:51:07.019Z,72.70
2018-02-24T09:53:35.190Z,72.40
2018-02-24T09:56:03.250Z,72.20
2018-02-24T09:58:31.424Z,72.00
2018-02-24T10:01:00.931Z,71.80
2018-02-24T10:03:28.601Z,71.70
2018-02-24T10:05:56.673Z,71.70
2018-02-24T10:08:24.836Z,71.60
2018-02-24T10:10:52.904Z,71.80
2018-02-24T10:13:20.988Z,71.80
2018-02-24T10:15:49.047Z,71.60
2018-02-24T10:18:17.231Z,71.50
2018-02-24T10:20:45.289Z,71.20
2018-02-24T10:23:13.374Z,71.10
2018-02-24T10:25:41.538Z,70.80
2018-02-24T10:28:09.619Z,70.70
2018-02-24T10:30:37.681Z,71.10
2018-02-24T10:33:05.762Z,70.30
2018-02-24T10:35:34.447Z,70.40
2018-02-24T10:38:02.506Z,70.30
2018-02-24T10:40:31.510Z,70.20
2018-02-24T10:42:59.676Z,70.20
2018-02-24T10:45:27.754Z,69.90
2018-02-24T10:47:58.556Z,69.70
2018-02-24T10:50:26.652Z,70.60
2018-02-24T10:52:54.835Z,69.70
2018-02-24T10:55:23.622Z,69.30
2018-02-24T10:57:52.399Z,68.80
2018-02-24T11:00:20.473Z,68.80
2018-02-24T11:02:48.541Z,68.40
2018-02-24T11:05:16.616Z,68.80
2018-02-24T11:07:44.695Z,69.50
2018-02-24T11:10:12.857Z,70.00
2018-02-24T11:12:41.030Z,68.90
2018-02-24T11:15:09.318Z,68.50
2018-02-24T11:20:12.423Z,66.60
2018-02-24T11:22:40.587Z,66.60
2018-02-24T11:25:08.771Z,65.80
2018-02-24T11:27:36.834Z,65.00
2018-02-24T11:30:05.723Z,64.60
2018-02-24T11:32:33.802Z,64.60
2018-02-24T11:35:01.975Z,64.90
2018-02-24T11:37:30.149Z,65.00
2018-02-24T11:39:58.313Z,65.40
2018-02-24T11:42:27.212Z,62.60
2018-02-24T11:44:55.276Z,62.60
2018-02-24T11:47:23.240Z,63.10
2018-02-24T11:49:51.419Z,62.60
2018-02-24T11:52:22.001Z,61.50
2018-02-24T11:54:50.014Z,61.00
2018-02-24T11:57:18.187Z,60.90
2018-02-24T11:59:46.156Z,61.10
2018-02-24T12:02:14.334Z,62.80
2018-02-24T12:04:42.508Z,63.00
2018-02-24T12:07:10.688Z,61.60
2018-02-24T12:09:38.854Z,60.30
2018-02-24T12:12:07.024Z,59.90
2018-02-24T12:14:35.918Z,60.20
2018-02-24T12:17:04.089Z,61.30
2018-02-24T12:19:34.825Z,60.30
2018-02-24T12:22:14.729Z,59.70
2018-02-24T12:24:54.293Z,59.40
2018-02-24T12:27:22.278Z,59.20
2018-02-24T12:29:50.361Z,59.30
2018-02-24T12:32:18.421Z,59.50
2018-02-24T12:34:47.119Z,59.70
2018-02-24T12:37:16.000Z,59.70
2018-02-24T12:39:45.502Z,60.00
2018-02-24T12:42:13.674Z,59.90
2018-02-24T12:44:41.758Z,60.10
2018-02-24T12:47:10.024Z,60.10
2018-02-24T12:49:38.263Z,60.20
2018-02-24T12:52:06.573Z,60.30
2018-02-24T12:54:34.644Z,60.40
2018-02-24T12:57:02.919Z,60.40
2018-02-24T12:59:30.990Z,61.50
2018-02-24T13:01:59.789Z,61.80
2018-02-24T13:04:27.957Z,61.90
2018-02-24T13:06:55.871Z,62.00
2018-02-24T13:09:23.889Z,62.20
2018-02-24T13:12:00.334Z,62.30
2018-02-24T13:14:28.646Z,62.00
2018-02-24T13:16:58.559Z,62.10
2018-02-24T13:19:27.142Z,62.10
2018-02-24T13:21:55.202Z,62.30
2018-02-24T13:24:23.437Z,62.40
2018-02-24T13:26:52.584Z,62.40
2018-02-24T13:29:23.414Z,62.70
2018-02-24T13:31:53.015Z,62.90
2018-02-24T13:34:21.201Z,62.90
2018-02-24T13:36:49.471Z,62.90
2018-02-24T13:39:18.402Z,63.00
2018-02-24T13:41:46.540Z,63.00
2018-02-24T13:44:14.816Z,63.00
2018-02-24T13:46:42.745Z,62.90
2018-02-24T13:49:10.742Z,63.00
2018-02-24T13:51:40.463Z,63.20
2018-02-24T13:54:08.631Z,63.10
2018-02-24T13:56:39.472Z,63.10
2018-02-24T13:59:07.646Z,63.10
2018-02-24T14:01:35.922Z,62.90
2018-02-24T14:04:04.089Z,62.80
2018-02-24T14:06:32.768Z,62.80
2018-02-24T14:09:00.957Z,62.80
2018-02-24T14:11:29.116Z,62.70
2018-02-24T14:13:57.190Z,62.60
2018-02-24T14:16:25.361Z,62.80
2018-02-24T14:18:54.365Z,62.80
2018-02-24T14:21:23.357Z,62.60
2018-02-24T14:23:51.416Z,62.50
2018-02-24T14:26:19.588Z,62.40
2018-02-24T14:28:47.775Z,62.40
2018-02-24T14:31:16.451Z,62.40
2018-02-24T14:33:44.623Z,62.50
2018-02-24T14:36:12.801Z,62.50
2018-02-24T14:38:40.982Z,62.50
2018-02-24T14:41:09.258Z,62.40
2018-02-24T14:43:37.316Z,62.50
2018-02-24T14:46:05.496Z,62.50
2018-02-24T14:48:33.676Z,62.50
2018-02-24T14:51:01.836Z,62.60
2018-02-24T14:53:30.364Z,63.40
2018-02-24T14:55:58.496Z,62.50
2018-02-24T14:58:26.677Z,62.50
2018-02-24T15:00:54.844Z,62.60
2018-02-24T15:03:23.015Z,62.70
2018-02-24T15:05:51.187Z,62.80
2018-02-24T15:08:19.270Z,62.70
2018-02-24T15:10:47.327Z,62.80
2018-02-24T15:13:15.410Z,62.70
2018-02-24T15:15:43.584Z,62.70
2018-02-24T15:18:11.751Z,62.60
2018-02-24T15:20:39.923Z,62.60
2018-02-24T15:23:08.104Z,62.50
2018-02-24T15:25:36.175Z,62.60
2018-02-24T15:28:04.443Z,62.70
2018-02-24T15:30:33.366Z,62.80
2018-02-24T15:33:02.333Z,62.80
2018-02-24T15:35:30.393Z,62.80
2018-02-24T15:37:58.464Z,62.90
2018-02-24T15:40:27.366Z,62.90
2018-02-24T15:42:55.551Z,62.80
2018-02-24T15:45:24.420Z,62.90
2018-02-24T15:47:52.596Z,62.90
2018-02-24T15:50:20.777Z,62.90
2018-02-24T15:52:48.943Z,63.00
2018-02-24T15:55:17.133Z,63.20
2018-02-24T15:57:46.217Z,63.20
2018-02-24T16:00:14.277Z,63.30
2018-02-24T16:02:42.457Z,63.20
2018-02-24T16:05:10.636Z,63.30
2018-02-24T16:07:38.798Z,63.20
2018-02-24T16:10:06.983Z,63.10
2018-02-24T16:12:35.261Z,63.20
2018-02-24T16:15:03.423Z,63.30
2018-02-24T16:17:31.593Z,63.30
2018-02-24T16:19:59.779Z,64.10
2018-02-24T16:22:27.941Z,63.30
2018-02-24T16:24:56.027Z,63.50
2018-02-24T16:27:24.299Z,63.50
2018-02-24T16:29:52.576Z,63.70
2018-02-24T16:32:20.843Z,63.70
2018-02-24T16:34:48.910Z,64.70
2018-02-24T16:37:16.994Z,63.90
2018-02-24T16:39:45.058Z,63.90
2018-02-24T16:42:13.154Z,63.90
2018-02-24T16:44:41.413Z,64.00
2018-02-24T16:47:09.575Z,64.10
2018-02-24T16:49:37.749Z,64.10
2018-02-24T16:52:05.932Z,64.10
2018-02-24T16:54:34.811Z,64.20
2018-02-24T16:57:02.983Z,64.30
2018-02-24T16:59:31.067Z,64.30
2018-02-24T17:01:59.241Z,64.40
2018-02-24T17:04:27.414Z,64.40
2018-02-24T17:06:55.578Z,64.50
2018-02-24T17:09:23.862Z,64.50
2018-02-24T17:11:52.127Z,64.60
2018-02-24T17:14:20.620Z,64.70
2018-02-24T17:16:48.786Z,64.80
2018-02-24T17:19:16.865Z,64.90
2018-02-24T17:21:45.133Z,65.00
2018-02-24T17:24:13.305Z,65.10
2018-02-24T17:26:43.119Z,65.30
2018-02-24T17:29:11.402Z,65.30
2018-02-24T17:31:39.563Z,65.50
2018-02-24T17:34:07.634Z,65.60
2018-02-24T17:36:36.727Z,65.70
2018-02-24T17:39:05.005Z,65.80
2018-02-24T17:41:33.796Z,65.90
2018-02-24T17:44:01.992Z,66.10
2018-02-24T17:46:30.960Z,66.20
2018-02-24T17:48:59.674Z,66.20
2018-02-24T17:51:28.534Z,66.40
2018-02-24T17:53:58.476Z,66.20
2018-02-24T17:56:27.201Z,66.30
2018-02-24T17:58:55.307Z,66.50
2018-02-24T18:01:23.494Z,66.50
2018-02-24T18:03:51.492Z,66.60
2018-02-24T18:06:20.547Z,66.80
2018-02-24T18:08:48.616Z,66.80
2018-02-24T18:11:16.894Z,66.90
2018-02-24T18:13:44.966Z,67.00
2018-02-24T18:16:13.150Z,67.00
2018-02-24T18:18:41.310Z,67.10
2018-02-24T18:21:09.485Z,67.20
2018-02-24T18:23:38.993Z,67.40
2018-02-24T18:26:07.166Z,67.50
2018-02-24T18:28:35.744Z,67.50
2018-02-24T18:31:03.968Z,67.50
2018-02-24T18:33:32.192Z,67.60
2018-02-24T18:36:00.481Z,67.60
2018-02-24T18:38:28.655Z,67.60
2018-02-24T18:40:56.829Z,67.70
2018-02-24T18:43:24.887Z,67.70
2018-02-24T18:45:53.065Z,67.70
2018-02-24T18:48:21.234Z,67.70
2018-02-24T18:50:50.034Z,67.80
2018-02-24T18:53:18.092Z,67.90
2018-02-24T18:55:46.381Z,68.00
2018-02-24T18:58:14.556Z,68.00
2018-02-24T19:00:42.613Z,68.00
2018-02-24T19:03:11.194Z,68.10
2018-02-24T19:05:39.476Z,68.10
2018-02-24T19:08:07.647Z,68.20
2018-02-24T19:10:35.824Z,68.20
2018-02-24T19:13:03.900Z,68.30
2018-02-24T19:15:32.064Z,68.30
2018-02-24T19:18:00.135Z,68.30
2018-02-24T19:20:28.425Z,68.30
2018-02-24T19:22:56.580Z,68.50
2018-02-24T19:25:25.078Z,68.50
2018-02-24T19:27:53.654Z,68.50
2018-02-24T19:30:22.042Z,68.50
2018-02-24T19:32:50.233Z,68.50
2018-02-24T19:35:19.096Z,68.50
2018-02-24T19:37:47.075Z,68.50
2018-02-24T19:40:15.130Z,68.60
2018-02-24T19:42:44.122Z,68.70
2018-02-24T19:45:12.195Z,68.80
2018-02-24T19:47:40.379Z,68.80
2018-02-24T19:50:08.541Z,69.50
2018-02-24T19:52:37.021Z,68.90
2018-02-24T19:55:06.030Z,68.90
2018-02-24T19:57:37.342Z,68.90
2018-02-24T20:00:07.800Z,68.90
2018-02-24T20:02:35.866Z,68.90
2018-02-24T20:05:03.997Z,69.00
2018-02-24T20:07:32.372Z,69.00
2018-02-24T20:10:00.494Z,69.00
2018-02-24T20:12:28.450Z,69.10
2018-02-24T20:14:56.535Z,69.10
2018-02-24T20:17:25.220Z,69.00
2018-02-24T20:19:55.019Z,69.00
2018-02-24T20:22:25.970Z,69.00
2018-02-24T20:24:54.028Z,69.10
2018-02-24T20:27:25.275Z,69.10
2018-02-24T20:29:53.459Z,69.10
2018-02-24T20:32:21.632Z,69.10
2018-02-24T20:34:49.692Z,69.20
2018-02-24T20:37:18.800Z,69.10
2018-02-24T20:39:46.860Z,69.20
2018-02-24T20:42:15.849Z,69.20
2018-02-24T20:44:44.035Z,69.20
2018-02-24T20:47:12.196Z,69.20
2018-02-24T20:49:40.370Z,69.30
2018-02-24T20:52:08.659Z,69.30
2018-02-24T20:54:36.822Z,69.30
2018-02-24T20:57:05.005Z,69.30
2018-02-24T20:59:34.195Z,69.30
2018-02-24T21:02:02.268Z,69.30
2018-02-24T21:04:30.342Z,69.40
2018-02-24T21:06:58.724Z,69.40
2018-02-24T21:09:26.890Z,69.40
2018-02-24T21:11:55.053Z,69.50
2018-02-24T21:14:23.232Z,69.50
2018-02-24T21:16:51.502Z,69.50
2018-02-24T21:19:19.584Z,69.50
2018-02-24T21:21:47.757Z,69.60
2018-02-24T21:24:15.938Z,69.60
2018-02-24T21:26:44.876Z,69.60
2018-02-24T21:29:12.887Z,69.70
2018-02-24T21:31:40.970Z,69.70
2018-02-24T21:34:09.033Z,69.70
2018-02-24T21:36:37.101Z,69.70
2018-02-24T21:39:05.286Z,69.70
2018-02-24T21:41:33.479Z,69.70
2018-02-24T21:44:02.342Z,69.70
2018-02-24T21:46:31.130Z,69.70
2018-02-24T21:49:00.029Z,69.70
2018-02-24T21:51:28.720Z,69.70
2018-02-24T21:53:57.596Z,69.80
2018-02-24T21:56:25.765Z,69.80
2018-02-24T21:58:54.147Z,69.70
2018-02-24T22:01:24.884Z,69.70
2018-02-24T22:03:52.947Z,69.70
2018-02-24T22:06:21.030Z,69.70
2018-02-24T22:08:49.197Z,69.70
2018-02-24T22:11:17.368Z,69.70
2018-02-24T22:13:45.440Z,69.80
2018-02-24T22:16:14.440Z,69.80
2018-02-24T22:18:43.224Z,69.80
2018-02-24T22:21:11.189Z,69.70
2018-02-24T22:23:39.371Z,69.70
2018-02-24T22:26:07.430Z,69.80
2018-02-24T22:28:35.606Z,69.90
2018-02-24T22:31:03.777Z,70.60
2018-02-24T22:33:31.967Z,70.00
2018-02-24T22:36:00.238Z,70.00
2018-02-24T22:38:28.413Z,70.00
2018-02-24T22:40:56.582Z,70.10
2018-02-24T22:43:24.542Z,70.10
2018-02-24T22:45:53.333Z,70.20
2018-02-24T22:48:28.479Z,70.30
2018-02-24T22:50:56.645Z,70.20
2018-02-24T22:53:24.819Z,70.30
2018-02-24T22:55:53.066Z,70.40
2018-02-24T22:58:21.163Z,70.50
2018-02-24T23:00:49.338Z,70.50
2018-02-24T23:03:17.510Z,70.60
2018-02-24T23:05:46.307Z,70.60
2018-02-24T23:08:14.370Z,70.60
2018-02-24T23:10:42.551Z,70.60
2018-02-24T23:13:10.611Z,70.70
2018-02-24T23:15:38.686Z,70.70
2018-02-24T23:18:06.753Z,70.70
2018-02-24T23:20:34.930Z,70.80
2018-02-24T23:23:02.997Z,70.80
2018-02-24T23:25:31.067Z,70.80
2018-02-24T23:27:59.251Z,70.80
2018-02-24T23:30:27.313Z,70.90
2018-02-24T23:32:55.280Z,71.00
2018-02-24T23:35:23.250Z,71.00
2018-02-24T23:37:51.429Z,71.10
2018-02-24T23:40:20.532Z,71.10
2018-02-24T23:42:51.095Z,71.20
2018-02-24T23:45:19.334Z,71.20
2018-02-24T23:47:48.531Z,71.20
2018-02-24T23:50:16.706Z,71.40
2018-02-24T23:52:44.872Z,71.40
2018-02-24T23:55:12.938Z,71.40
2018-02-24T23:57:41.118Z,71.40
